createdAt,value
2018-09-01T00:01:20.832Z,15.50
2018-09-01T00:03:49.088Z,15.50
2018-09-01T00:06:17.260Z,15.60
2018-09-01T00:08:45.367Z,15.60
2018-09-01T00:11:13.580Z,15.70
2018-09-01T00:13:42.376Z,15.70
2018-09-01T00:16:10.522Z,15.70
2018-09-01T00:18:38.646Z,15.80
2018-09-01T00:21:06.764Z,15.80
2018-09-01T00:23:35.048Z,15.80
2018-09-01T00:26:03.214Z,15.80
2018-09-01T00:28:31.358Z,15.80
2018-09-01T00:30:59.514Z,15.80
2018-09-01T00:33:27.640Z,15.80
2018-09-01T00:35:55.878Z,15.70
2018-09-01T00:38:29.606Z,15.70
2018-09-01T00:40:57.740Z,15.70
2018-09-01T00:43:25.994Z,15.60
2018-09-01T00:45:54.830Z,15.60
2018-09-01T00:48:22.988Z,15.60
2018-09-01T00:50:51.307Z,15.50
2018-09-01T00:53:19.515Z,15.50
2018-09-01T00:55:48.154Z,15.40
2018-09-01T00:58:16.285Z,15.40
2018-09-01T01:00:44.480Z,15.40
2018-09-01T01:03:13.388Z,15.40
2018-09-01T01:05:41.505Z,15.40
2018-09-01T01:08:09.697Z,15.40
2018-09-01T01:10:38.930Z,15.40
2018-09-01T01:13:07.206Z,15.40
2018-09-01T01:15:35.536Z,15.40
2018-09-01T01:18:03.738Z,15.40
2018-09-01T01:20:32.170Z,15.40
2018-09-01T01:23:00.292Z,15.40
2018-09-01T01:25:28.481Z,15.40
2018-09-01T01:27:56.716Z,15.40
2018-09-01T01:30:24.842Z,15.40
2018-09-01T01:32:54.682Z,15.40
2018-09-01T01:35:22.840Z,15.40
2018-09-01T01:37:50.984Z,15.30
2018-09-01T01:40:19.357Z,15.20
2018-09-01T01:42:47.508Z,15.20
2018-09-01T01:45:15.632Z,15.10
2018-09-01T01:47:43.796Z,15.10
2018-09-01T01:50:12.572Z,15.00
2018-09-01T01:52:40.782Z,15.00
2018-09-01T01:55:09.168Z,14.90
2018-09-01T01:57:42.690Z,14.90
2018-09-01T02:00:10.928Z,14.80
2018-09-01T02:02:40.433Z,14.80
2018-09-01T02:05:10.456Z,14.80
2018-09-01T02:07:39.363Z,14.70
2018-09-01T02:10:07.658Z,14.70
2018-09-01T02:12:35.858Z,14.60
2018-09-01T02:15:05.609Z,14.50
2018-09-01T02:17:33.772Z,14.50
2018-09-01T02:20:01.919Z,14.40
2018-09-01T02:22:31.538Z,14.40
2018-09-01T02:24:59.711Z,14.40
2018-09-01T02:27:28.370Z,14.30
2018-09-01T02:29:56.554Z,14.30
2018-09-01T02:32:24.788Z,14.30
2018-09-01T02:34:53.390Z,14.20
2018-09-01T02:37:21.566Z,14.20
2018-09-01T02:39:49.744Z,14.20
2018-09-01T02:42:17.880Z,14.20
2018-09-01T02:44:46.013Z,14.10
2018-09-01T02:47:14.183Z,14.10
2018-09-01T02:49:42.304Z,14.10
2018-09-01T02:52:10.437Z,14.10
2018-09-01T02:54:38.629Z,14.00
2018-09-01T02:57:07.010Z,14.00
2018-09-01T02:59:38.316Z,14.00
2018-09-01T03:02:06.454Z,13.90
2018-09-01T03:04:34.590Z,13.90
2018-09-01T03:07:02.720Z,13.90
2018-09-01T03:09:31.046Z,13.80
2018-09-01T03:11:59.857Z,13.80
2018-09-01T03:14:28.253Z,13.80
2018-09-01T03:16:56.917Z,13.80
2018-09-01T03:19:25.736Z,13.80
2018-09-01T03:21:54.197Z,13.70
2018-09-01T03:24:22.374Z,13.70
2018-09-01T03:26:52.136Z,13.70
2018-09-01T03:29:20.489Z,13.70
2018-09-01T03:31:48.708Z,13.70
2018-09-01T03:34:16.896Z,13.70
2018-09-01T03:36:46.125Z,13.70
2018-09-01T03:39:14.288Z,13.70
2018-09-01T03:41:42.504Z,13.70
2018-09-01T03:44:10.598Z,13.60
2018-09-01T03:46:38.770Z,13.60
2018-09-01T03:49:08.348Z,13.60
2018-09-01T03:51:36.650Z,13.50
2018-09-01T03:54:04.986Z,13.50
2018-09-01T03:56:33.311Z,13.50
2018-09-01T03:59:02.052Z,13.50
2018-09-01T04:01:30.298Z,13.40
2018-09-01T04:03:58.452Z,13.40
2018-09-01T04:06:26.598Z,13.40
2018-09-01T04:08:54.815Z,13.40
2018-09-01T04:11:22.965Z,13.30
2018-09-01T04:13:51.162Z,13.30
2018-09-01T04:16:19.434Z,13.30
2018-09-01T04:18:47.610Z,13.30
2018-09-01T04:21:17.086Z,13.30
2018-09-01T04:23:45.212Z,13.30
2018-09-01T04:26:13.434Z,13.30
2018-09-01T04:28:41.553Z,13.30
2018-09-01T04:31:09.659Z,13.30
2018-09-01T04:33:37.816Z,13.30
2018-09-01T04:36:06.199Z,13.30
2018-09-01T04:38:34.379Z,13.40
2018-09-01T04:41:02.592Z,13.40
2018-09-01T04:43:30.793Z,13.40
2018-09-01T04:45:58.965Z,13.40
2018-09-01T04:48:27.124Z,13.40
2018-09-01T04:50:55.442Z,13.40
2018-09-01T04:53:23.615Z,13.40
2018-09-01T04:55:52.148Z,13.50
2018-09-01T04:58:20.360Z,13.50
2018-09-01T05:00:51.141Z,13.50
2018-09-01T05:03:19.845Z,13.50
2018-09-01T05:05:48.044Z,13.50
2018-09-01T05:08:16.272Z,13.60
2018-09-01T05:10:44.379Z,13.60
2018-09-01T05:13:13.635Z,13.70
2018-09-01T05:15:41.965Z,13.70
2018-09-01T05:18:10.110Z,13.80
2018-09-01T05:20:39.734Z,13.80
2018-09-01T05:23:09.731Z,13.90
2018-09-01T05:25:37.857Z,13.90
2018-09-01T05:28:06.028Z,14.00
2018-09-01T05:30:34.191Z,14.10
2018-09-01T05:33:02.384Z,14.10
2018-09-01T05:35:30.619Z,14.20
2018-09-01T05:37:58.790Z,14.30
2018-09-01T05:40:27.097Z,14.40
2018-09-01T05:42:55.250Z,14.50
2018-09-01T05:45:23.348Z,14.70
2018-09-01T05:47:54.576Z,14.80
2018-09-01T05:50:23.974Z,15.10
2018-09-01T05:52:52.327Z,15.50
2018-09-01T05:55:20.501Z,15.80
2018-09-01T05:57:49.722Z,16.10
2018-09-01T06:00:21.886Z,16.30
2018-09-01T06:02:52.616Z,16.60
2018-09-01T06:05:21.102Z,16.70
2018-09-01T06:07:50.026Z,16.90
2018-09-01T06:10:18.162Z,17.10
2018-09-01T06:12:46.336Z,17.30
2018-09-01T06:15:14.517Z,17.40
2018-09-01T06:17:42.783Z,17.50
2018-09-01T06:20:11.486Z,17.60
2018-09-01T06:22:39.630Z,17.70
2018-09-01T06:25:07.789Z,17.80
2018-09-01T06:27:41.096Z,17.80
2018-09-01T06:30:13.806Z,17.90
2018-09-01T06:32:41.888Z,18.00
2018-09-01T06:35:10.278Z,18.10
2018-09-01T06:37:38.427Z,18.20
2018-09-01T06:40:07.164Z,18.20
2018-09-01T06:42:35.975Z,18.20
2018-09-01T06:45:04.159Z,18.40
2018-09-01T06:47:32.474Z,18.60
2018-09-01T06:50:03.960Z,18.70
2018-09-01T06:52:34.604Z,18.80
2018-09-01T06:55:04.128Z,18.80
2018-09-01T06:57:32.280Z,18.80
2018-09-01T07:00:00.741Z,18.80
2018-09-01T07:02:29.058Z,18.70
2018-09-01T07:04:57.322Z,18.70
2018-09-01T07:07:25.488Z,18.70
2018-09-01T07:09:54.480Z,18.70
2018-09-01T07:12:23.284Z,18.80
2018-09-01T07:14:51.998Z,18.80
2018-09-01T07:17:20.130Z,18.80
2018-09-01T07:19:48.287Z,19.00
2018-09-01T07:22:16.635Z,19.10
2018-09-01T07:24:44.860Z,19.10
2018-09-01T07:27:13.103Z,19.20
2018-09-01T07:29:41.291Z,19.20
2018-09-01T07:32:09.684Z,19.30
2018-09-01T07:34:39.670Z,19.30
2018-09-01T07:37:07.918Z,19.40
2018-09-01T07:39:36.827Z,19.50
2018-09-01T07:42:06.204Z,19.50
2018-09-01T07:44:34.405Z,19.50
2018-09-01T07:47:02.550Z,19.50
2018-09-01T07:49:30.677Z,19.40
2018-09-01T07:51:58.871Z,19.40
2018-09-01T07:54:27.249Z,19.30
2018-09-01T07:56:55.494Z,19.30
2018-09-01T07:59:23.665Z,19.40
2018-09-01T08:01:51.800Z,19.40
2018-09-01T08:04:20.077Z,19.40
2018-09-01T08:06:48.255Z,19.40
2018-09-01T08:09:17.522Z,19.40
2018-09-01T08:11:46.399Z,19.40
2018-09-01T08:14:14.643Z,19.40
2018-09-01T08:16:42.826Z,19.40
2018-09-01T08:19:11.208Z,19.40
2018-09-01T08:21:39.379Z,19.30
2018-09-01T08:24:07.580Z,19.20
2018-09-01T08:26:36.978Z,19.20
2018-09-01T08:29:06.714Z,19.30
2018-09-01T08:31:34.910Z,19.30
2018-09-01T08:34:03.055Z,19.30
2018-09-01T08:36:32.804Z,19.40
2018-09-01T08:39:02.256Z,19.50
2018-09-01T08:41:30.441Z,19.50
2018-09-01T08:43:58.599Z,19.60
2018-09-01T08:46:26.804Z,19.60
2018-09-01T08:48:54.999Z,19.60
2018-09-01T08:51:23.254Z,19.70
2018-09-01T08:53:51.448Z,19.80
2018-09-01T08:56:21.518Z,19.90
2018-09-01T08:58:51.250Z,19.90
2018-09-01T09:01:19.403Z,20.00
2018-09-01T09:03:49.371Z,20.00
2018-09-01T09:06:18.210Z,20.10
2018-09-01T09:08:46.361Z,20.10
2018-09-01T09:11:14.490Z,20.20
2018-09-01T09:13:42.715Z,20.30
2018-09-01T09:16:10.922Z,20.30
2018-09-01T09:18:39.603Z,20.40
2018-09-01T09:21:08.143Z,20.50
2018-09-01T09:23:36.353Z,20.60
2018-09-01T09:26:04.502Z,20.80
2018-09-01T09:28:33.738Z,20.90
2018-09-01T09:31:01.951Z,20.90
2018-09-01T09:33:30.284Z,21.00
2018-09-01T09:35:58.529Z,21.10
2018-09-01T09:38:26.745Z,21.20
2018-09-01T09:40:54.983Z,21.20
2018-09-01T09:43:23.160Z,21.40
2018-09-01T09:45:52.855Z,21.60
2018-09-01T09:48:21.652Z,21.60
2018-09-01T09:50:49.904Z,21.80
2018-09-01T09:53:18.148Z,22.00
2018-09-01T09:55:46.446Z,22.20
2018-09-01T09:58:14.761Z,22.10
2018-09-01T10:00:48.415Z,22.10
2018-09-01T10:03:16.558Z,22.10
2018-09-01T10:05:45.209Z,22.20
2018-09-01T10:08:13.767Z,22.50
2018-09-01T10:10:42.192Z,22.80
2018-09-01T10:13:10.528Z,23.00
2018-09-01T10:15:38.708Z,23.00
2018-09-01T10:18:07.486Z,22.90
2018-09-01T10:20:35.881Z,22.70
2018-09-01T10:23:04.018Z,22.40
2018-09-01T10:25:32.352Z,22.00
2018-09-01T10:28:00.537Z,21.60
2018-09-01T10:30:28.681Z,21.30
2018-09-01T10:32:56.892Z,21.20
2018-09-01T10:35:25.150Z,21.30
2018-09-01T10:37:53.700Z,21.60
2018-09-01T10:40:21.850Z,21.80
2018-09-01T10:42:50.048Z,22.20
2018-09-01T10:45:18.176Z,22.40
2018-09-01T10:47:46.883Z,22.70
2018-09-01T10:50:15.020Z,23.10
2018-09-01T10:52:43.228Z,23.50
2018-09-01T10:55:11.468Z,23.90
2018-09-01T10:57:39.667Z,24.10
2018-09-01T11:00:09.344Z,24.30
2018-09-01T11:02:37.881Z,24.10
2018-09-01T11:05:06.034Z,24.00
2018-09-01T11:07:34.357Z,23.80
2018-09-01T11:10:03.829Z,23.60
2018-09-01T11:12:32.036Z,23.50
2018-09-01T11:15:00.450Z,23.60
2018-09-01T11:17:28.699Z,23.40
2018-09-01T11:20:03.647Z,23.30
2018-09-01T11:22:31.866Z,23.30
2018-09-01T11:25:00.281Z,23.30
2018-09-01T11:27:28.455Z,23.50
2018-09-01T11:29:57.422Z,23.60
2018-09-01T11:32:25.842Z,23.60
2018-09-01T11:34:54.477Z,23.70
2018-09-01T11:37:22.688Z,23.60
2018-09-01T11:39:50.825Z,23.60
2018-09-01T11:42:19.015Z,23.60
2018-09-01T11:44:48.395Z,23.60
2018-09-01T11:47:16.544Z,23.70
2018-09-01T11:49:44.686Z,23.60
2018-09-01T11:52:12.864Z,23.70
2018-09-01T11:54:42.644Z,23.90
2018-09-01T11:57:10.907Z,24.00
2018-09-01T11:59:39.317Z,24.20
2018-09-01T12:02:08.870Z,24.50
2018-09-01T12:04:37.016Z,24.60
2018-09-01T12:07:05.325Z,24.50
2018-09-01T12:09:33.594Z,24.40
2018-09-01T12:12:01.804Z,24.10
2018-09-01T12:14:30.409Z,24.00
2018-09-01T12:16:58.662Z,24.00
2018-09-01T12:19:28.552Z,24.00
2018-09-01T12:21:57.425Z,24.10
2018-09-01T12:24:26.362Z,24.20
2018-09-01T12:26:54.989Z,24.30
2018-09-01T12:29:23.897Z,24.40
2018-09-01T12:31:52.033Z,24.20
2018-09-01T12:34:20.214Z,24.00
2018-09-01T12:36:48.450Z,23.80
2018-09-01T12:39:16.609Z,23.70
2018-09-01T12:41:44.879Z,23.70
2018-09-01T12:44:13.102Z,23.60
2018-09-01T12:46:42.445Z,23.60
2018-09-01T12:49:10.691Z,23.70
2018-09-01T12:51:39.338Z,23.80
2018-09-01T12:54:07.929Z,23.90
2018-09-01T12:56:36.206Z,23.90
2018-09-01T12:59:04.610Z,23.80
2018-09-01T13:01:32.863Z,23.60
2018-09-01T13:04:01.380Z,23.50
2018-09-01T13:06:29.580Z,23.60
2018-09-01T13:08:58.987Z,23.60
2018-09-01T13:11:27.114Z,23.50
2018-09-01T13:13:55.498Z,23.50
2018-09-01T13:16:23.702Z,23.50
2018-09-01T13:18:51.899Z,23.60
2018-09-01T13:21:20.119Z,23.70
2018-09-01T13:23:48.286Z,23.80
2018-09-01T13:26:16.440Z,23.90
2018-09-01T13:28:45.388Z,23.90
2018-09-01T13:31:13.524Z,24.10
2018-09-01T13:33:42.584Z,24.20
2018-09-01T13:36:12.030Z,24.30
2018-09-01T13:38:40.686Z,24.40
2018-09-01T13:41:09.023Z,24.60
2018-09-01T13:43:37.264Z,24.50
2018-09-01T13:46:08.159Z,24.50
2018-09-01T13:48:36.301Z,24.50
2018-09-01T13:51:04.549Z,24.50
2018-09-01T13:53:32.723Z,24.50
2018-09-01T13:56:00.897Z,24.40
2018-09-01T13:58:29.103Z,24.30
2018-09-01T14:00:57.315Z,24.10
2018-09-01T14:03:25.627Z,24.00
2018-09-01T14:05:54.019Z,23.90
2018-09-01T14:08:22.144Z,23.80
2018-09-01T14:10:50.293Z,23.80
2018-09-01T14:13:18.417Z,23.70
2018-09-01T14:15:46.607Z,23.60
2018-09-01T14:18:14.721Z,23.60
2018-09-01T14:20:43.047Z,23.70
2018-09-01T14:23:11.588Z,23.90
2018-09-01T14:25:39.790Z,24.00
2018-09-01T14:28:08.217Z,24.10
2018-09-01T14:30:36.358Z,24.20
2018-09-01T14:33:04.607Z,24.20
2018-09-01T14:35:32.742Z,24.10
2018-09-01T14:38:00.914Z,24.20
2018-09-01T14:40:29.952Z,24.40
2018-09-01T14:42:58.205Z,24.50
2018-09-01T14:45:26.296Z,24.50
2018-09-01T14:47:54.430Z,24.40
2018-09-01T14:50:22.778Z,24.50
2018-09-01T14:52:51.004Z,24.50
2018-09-01T14:55:19.121Z,24.60
2018-09-01T14:57:48.219Z,24.50
2018-09-01T15:00:16.454Z,24.40
2018-09-01T15:02:44.617Z,24.30
2018-09-01T15:05:12.839Z,24.30
2018-09-01T15:07:42.272Z,24.10
2018-09-01T15:10:10.459Z,24.00
2018-09-01T15:12:38.618Z,24.00
2018-09-01T15:15:06.838Z,23.90
2018-09-01T15:17:35.066Z,23.90
2018-09-01T15:20:03.750Z,23.90
2018-09-01T15:22:32.863Z,23.80
2018-09-01T15:25:01.054Z,23.80
2018-09-01T15:27:29.274Z,23.70
2018-09-01T15:29:57.557Z,23.70
2018-09-01T15:32:25.727Z,23.70
2018-09-01T15:34:53.944Z,23.70
2018-09-01T15:37:22.205Z,23.70
2018-09-01T15:39:50.551Z,23.70
2018-09-01T15:42:18.695Z,23.60
2018-09-01T15:44:48.360Z,23.50
2018-09-01T15:47:16.538Z,23.40
2018-09-01T15:49:44.947Z,23.30
2018-09-01T15:52:13.092Z,23.10
2018-09-01T15:54:41.264Z,23.00
2018-09-01T15:57:09.410Z,22.90
2018-09-01T15:59:39.247Z,22.80
2018-09-01T16:02:07.442Z,22.70
2018-09-01T16:04:35.634Z,22.60
2018-09-01T16:07:03.810Z,22.50
2018-09-01T16:09:32.856Z,22.50
2018-09-01T16:12:01.014Z,22.40
2018-09-01T16:14:29.287Z,22.30
2018-09-01T16:16:57.453Z,22.20
2018-09-01T16:19:25.640Z,22.10
2018-09-01T16:21:53.875Z,22.10
2018-09-01T16:24:22.051Z,22.10
2018-09-01T16:26:50.266Z,22.10
2018-09-01T16:29:18.470Z,22.10
2018-09-01T16:31:46.820Z,22.00
2018-09-01T16:34:16.136Z,22.00
2018-09-01T16:36:45.272Z,22.10
2018-09-01T16:39:13.498Z,22.10
2018-09-01T16:41:41.718Z,22.10
2018-09-01T16:44:10.959Z,22.10
2018-09-01T16:46:39.331Z,22.00
2018-09-01T16:49:07.569Z,22.00
2018-09-01T16:51:35.981Z,21.90
2018-09-01T16:54:04.981Z,21.90
2018-09-01T16:56:33.137Z,21.80
2018-09-01T16:59:01.407Z,21.70
2018-09-01T17:01:29.603Z,21.70
2018-09-01T17:03:58.030Z,21.60
2018-09-01T17:06:26.278Z,21.60
2018-09-01T17:08:54.413Z,21.50
2018-09-01T17:11:22.566Z,21.50
2018-09-01T17:13:50.918Z,21.40
2018-09-01T17:16:19.124Z,21.40
2018-09-01T17:18:47.400Z,21.30
2018-09-01T17:21:15.534Z,21.30
2018-09-01T17:23:44.753Z,21.30
2018-09-01T17:26:12.938Z,21.30
2018-09-01T17:28:41.118Z,21.30
2018-09-01T17:31:09.432Z,21.20
2018-09-01T17:33:37.700Z,21.20
2018-09-01T17:36:05.946Z,21.10
2018-09-01T17:38:34.408Z,21.00
2018-09-01T17:41:02.678Z,20.90
2018-09-01T17:43:30.852Z,20.90
2018-09-01T17:45:59.034Z,20.80
2018-09-01T17:48:27.208Z,20.70
2018-09-01T17:50:55.546Z,20.70
2018-09-01T17:53:23.714Z,20.60
2018-09-01T17:55:53.044Z,20.60
2018-09-01T17:58:21.229Z,20.60
2018-09-01T18:00:49.502Z,20.50
2018-09-01T18:03:17.665Z,20.40
2018-09-01T18:05:45.865Z,20.40
2018-09-01T18:08:14.089Z,20.30
2018-09-01T18:10:42.381Z,20.20
2018-09-01T18:13:10.526Z,20.20
2018-09-01T18:15:38.677Z,20.10
2018-09-01T18:18:07.683Z,20.00
2018-09-01T18:20:35.821Z,19.90
2018-09-01T18:23:04.174Z,19.80
2018-09-01T18:25:32.359Z,19.80
2018-09-01T18:28:00.495Z,19.70
2018-09-01T18:30:28.690Z,19.70
2018-09-01T18:32:56.888Z,19.70
2018-09-01T18:35:25.198Z,19.60
2018-09-01T18:37:53.282Z,19.60
2018-09-01T18:40:21.497Z,19.50
2018-09-01T18:42:49.967Z,19.50
2018-09-01T18:45:18.459Z,19.50
2018-09-01T18:47:46.595Z,19.40
2018-09-01T18:50:14.768Z,19.40
2018-09-01T18:52:42.946Z,19.40
2018-09-01T18:55:11.080Z,19.40
2018-09-01T18:57:39.280Z,19.40
2018-09-01T19:00:08.251Z,19.40
2018-09-01T19:02:36.419Z,19.40
2018-09-01T19:05:06.070Z,19.30
2018-09-01T19:07:35.783Z,19.30
2018-09-01T19:10:03.990Z,19.30
2018-09-01T19:12:32.183Z,19.30
2018-09-01T19:15:00.330Z,19.40
2018-09-01T19:17:28.501Z,19.40
2018-09-01T19:19:56.629Z,19.40
2018-09-01T19:22:24.818Z,19.40
2018-09-01T19:24:52.979Z,19.40
2018-09-01T19:27:21.155Z,19.50
2018-09-01T19:29:49.311Z,19.50
2018-09-01T19:32:17.853Z,19.50
2018-09-01T19:34:46.081Z,19.50
2018-09-01T19:37:14.256Z,19.50
2018-09-01T19:39:42.494Z,19.50
2018-09-01T19:42:10.664Z,19.50
2018-09-01T19:44:38.886Z,19.50
2018-09-01T19:47:07.403Z,19.50
2018-09-01T19:49:35.982Z,19.50
2018-09-01T19:52:04.269Z,19.50
2018-09-01T19:54:32.544Z,19.50
2018-09-01T19:57:00.788Z,19.50
2018-09-01T19:59:28.962Z,19.50
2018-09-01T20:01:57.155Z,19.40
2018-09-01T20:04:25.448Z,19.40
2018-09-01T20:06:53.587Z,19.40
2018-09-01T20:09:22.295Z,19.30
2018-09-01T20:11:51.185Z,19.30
2018-09-01T20:14:19.523Z,19.30
2018-09-01T20:16:48.093Z,19.20
2018-09-01T20:19:16.224Z,19.10
2018-09-01T20:21:44.494Z,19.10
2018-09-01T20:24:13.580Z,19.00
2018-09-01T20:26:41.874Z,18.90
2018-09-01T20:29:10.123Z,18.80
2018-09-01T20:31:38.353Z,18.80
2018-09-01T20:34:07.013Z,18.70
2018-09-01T20:36:35.166Z,18.70
2018-09-01T20:39:03.883Z,18.70
2018-09-01T20:41:32.308Z,18.70
2018-09-01T20:44:00.865Z,18.80
2018-09-01T20:46:29.103Z,18.80
2018-09-01T20:48:57.384Z,18.80
2018-09-01T20:51:25.714Z,18.90
2018-09-01T20:53:53.976Z,18.90
2018-09-01T20:56:22.549Z,18.90
2018-09-01T20:58:50.789Z,19.00
2018-09-01T21:01:19.177Z,19.00
2018-09-01T21:03:47.995Z,19.00
2018-09-01T21:06:16.209Z,18.90
2018-09-01T21:08:44.521Z,19.00
2018-09-01T21:11:12.785Z,18.90
2018-09-01T21:13:40.940Z,18.90
2018-09-01T21:16:09.131Z,18.90
2018-09-01T21:18:37.396Z,18.90
2018-09-01T21:21:05.729Z,18.90
2018-09-01T21:23:33.894Z,19.00
2018-09-01T21:26:02.143Z,18.90
2018-09-01T21:28:30.901Z,18.90
2018-09-01T21:30:59.306Z,18.90
2018-09-01T21:33:27.518Z,18.90
2018-09-01T21:35:55.754Z,18.90
2018-09-01T21:38:23.928Z,18.90
2018-09-01T21:40:52.109Z,18.90
2018-09-01T21:43:20.449Z,18.90
2018-09-01T21:45:48.694Z,18.80
2018-09-01T21:48:16.863Z,18.80
2018-09-01T21:50:45.116Z,18.80
2018-09-01T21:53:13.464Z,18.80
2018-09-01T21:55:41.663Z,18.70
2018-09-01T21:58:09.976Z,18.70
2018-09-01T22:00:42.332Z,18.60
2018-09-01T22:03:10.511Z,18.60
2018-09-01T22:05:38.622Z,18.60
2018-09-01T22:08:06.816Z,18.50
2018-09-01T22:10:34.990Z,18.50
2018-09-01T22:13:03.190Z,18.50
2018-09-01T22:15:31.327Z,18.50
2018-09-01T22:17:59.758Z,18.50
2018-09-01T22:20:28.111Z,18.50
2018-09-01T22:22:56.908Z,18.40
2018-09-01T22:25:25.042Z,18.40
2018-09-01T22:27:53.223Z,18.40
2018-09-01T22:30:21.460Z,18.40
2018-09-01T22:32:49.741Z,18.40
2018-09-01T22:35:17.879Z,18.40
2018-09-01T22:37:46.107Z,18.40
2018-09-01T22:40:14.331Z,18.40
2018-09-01T22:42:42.477Z,18.40
2018-09-01T22:45:10.649Z,18.40
2018-09-01T22:47:39.235Z,18.40
2018-09-01T22:50:07.391Z,18.30
2018-09-01T22:52:35.564Z,18.30
2018-09-01T22:55:03.775Z,18.30
2018-09-01T22:57:31.967Z,18.30
2018-09-01T23:00:00.155Z,18.30
2018-09-01T23:02:28.309Z,18.30
2018-09-01T23:04:57.581Z,18.20
2018-09-01T23:07:25.760Z,18.20
2018-09-01T23:09:53.921Z,18.10
2018-09-01T23:12:23.047Z,18.00
2018-09-01T23:14:51.253Z,17.90
2018-09-01T23:17:19.457Z,17.90
2018-09-01T23:19:47.695Z,17.80
2018-09-01T23:22:16.078Z,17.60
2018-09-01T23:24:44.237Z,17.60
2018-09-01T23:27:12.479Z,17.50
2018-09-01T23:29:40.664Z,17.50
2018-09-01T23:32:10.277Z,17.40
2018-09-01T23:34:38.537Z,17.40
2018-09-01T23:37:06.747Z,17.30
2018-09-01T23:39:34.931Z,17.30
2018-09-01T23:42:03.189Z,17.20
2018-09-01T23:44:31.332Z,17.20
2018-09-01T23:46:59.500Z,17.20
2018-09-01T23:49:27.733Z,17.10
2018-09-01T23:51:56.053Z,17.10
2018-09-01T23:54:24.321Z,17.10
2018-09-01T23:56:54.131Z,17.00
2018-09-01T23:59:22.316Z,17.00
